createdAt,value
2018-08-22T00:00:47.770Z,19.18
2018-08-22T00:02:24.159Z,19.18
2018-08-22T00:03:59.982Z,19.13
2018-08-22T00:05:35.366Z,19.16
2018-08-22T00:07:12.668Z,19.21
2018-08-22T00:08:47.940Z,19.15
2018-08-22T00:10:26.813Z,19.13
2018-08-22T00:12:04.009Z,19.10
2018-08-22T00:13:38.950Z,19.14
2018-08-22T00:15:16.764Z,19.15
2018-08-22T00:16:52.864Z,19.21
2018-08-22T00:18:29.145Z,19.14
2018-08-22T00:20:04.503Z,19.09
2018-08-22T00:21:41.993Z,19.07
2018-08-22T00:23:17.540Z,19.12
2018-08-22T00:24:54.905Z,19.12
2018-08-22T00:26:30.881Z,19.14
2018-08-22T00:28:06.401Z,19.09
2018-08-22T00:29:43.142Z,19.10
2018-08-22T00:31:19.077Z,19.09
2018-08-22T00:32:54.663Z,19.06
2018-08-22T00:34:31.495Z,19.07
2018-08-22T00:36:06.897Z,19.06
2018-08-22T00:37:41.801Z,19.01
2018-08-22T00:39:16.756Z,18.96
2018-08-22T00:40:52.091Z,18.96
2018-08-22T00:42:27.970Z,18.91
2018-08-22T00:44:04.252Z,18.83
2018-08-22T00:45:39.609Z,18.85
2018-08-22T00:47:15.232Z,18.81
2018-08-22T00:48:51.817Z,18.79
2018-08-22T00:50:27.206Z,18.70
2018-08-22T00:52:03.282Z,18.68
2018-08-22T00:53:38.291Z,18.63
2018-08-22T00:55:14.092Z,18.55
2018-08-22T00:56:48.969Z,18.52
2018-08-22T00:58:24.314Z,18.47
2018-08-22T00:59:59.841Z,18.43
2018-08-22T01:01:35.190Z,18.36
2018-08-22T01:03:10.849Z,18.34
2018-08-22T01:04:46.265Z,18.30
2018-08-22T01:06:21.537Z,18.28
2018-08-22T01:07:56.534Z,18.22
2018-08-22T01:09:32.647Z,18.27
2018-08-22T01:11:09.000Z,18.23
2018-08-22T01:12:46.280Z,18.20
2018-08-22T01:14:21.410Z,18.16
2018-08-22T01:15:56.332Z,18.08
2018-08-22T01:17:32.017Z,18.02
2018-08-22T01:19:07.707Z,17.93
2018-08-22T01:20:42.769Z,17.88
2018-08-22T01:22:18.054Z,17.85
2018-08-22T01:23:54.171Z,17.80
2018-08-22T01:25:31.415Z,17.75
2018-08-22T01:27:06.768Z,17.69
2018-08-22T01:28:42.828Z,17.71
2018-08-22T01:30:19.746Z,17.66
2018-08-22T01:31:56.553Z,17.72
2018-08-22T01:33:34.235Z,17.68
2018-08-22T01:35:09.710Z,17.68
2018-08-22T01:36:45.553Z,17.71
2018-08-22T01:38:23.873Z,17.69
2018-08-22T01:40:00.709Z,17.65
2018-08-22T01:41:36.416Z,17.63
2018-08-22T01:43:12.157Z,17.65
2018-08-22T01:44:48.303Z,17.65
2018-08-22T01:46:24.272Z,17.62
2018-08-22T01:47:59.556Z,17.60
2018-08-22T01:49:35.340Z,17.61
2018-08-22T01:51:10.626Z,17.60
2018-08-22T01:52:45.624Z,17.53
2018-08-22T01:54:20.903Z,17.54
2018-08-22T01:55:56.503Z,17.50
2018-08-22T01:57:33.328Z,17.46
2018-08-22T01:59:11.071Z,17.42
2018-08-22T02:00:46.445Z,17.37
2018-08-22T02:02:21.370Z,17.39
2018-08-22T02:03:56.619Z,17.33
2018-08-22T02:05:32.228Z,17.30
2018-08-22T02:07:07.537Z,17.24
2018-08-22T02:08:42.956Z,17.19
2018-08-22T02:10:18.348Z,17.12
2018-08-22T02:11:53.920Z,17.07
2018-08-22T02:13:30.334Z,17.00
2018-08-22T02:15:07.428Z,16.93
2018-08-22T02:16:43.693Z,16.94
2018-08-22T02:18:19.049Z,16.86
2018-08-22T02:19:54.618Z,16.87
2018-08-22T02:21:29.593Z,16.79
2018-08-22T02:23:04.738Z,16.81
2018-08-22T02:24:40.099Z,16.83
2018-08-22T02:26:15.551Z,16.76
2018-08-22T02:27:50.596Z,16.82
2018-08-22T02:29:26.091Z,16.77
2018-08-22T02:31:01.210Z,16.83
2018-08-22T02:32:36.478Z,16.92
2018-08-22T02:34:12.784Z,16.89
2018-08-22T02:35:48.491Z,16.96
2018-08-22T02:37:23.770Z,16.98
2018-08-22T02:38:59.751Z,16.97
2018-08-22T02:40:35.098Z,16.91
2018-08-22T02:42:10.343Z,16.90
2018-08-22T02:43:45.760Z,16.85
2018-08-22T02:45:21.653Z,16.81
2018-08-22T02:46:56.623Z,16.76
2018-08-22T02:48:36.376Z,16.78
2018-08-22T02:50:11.404Z,16.78
2018-08-22T02:51:46.352Z,16.78
2018-08-22T02:53:21.425Z,16.82
2018-08-22T02:54:57.697Z,16.94
2018-08-22T02:56:35.711Z,16.97
2018-08-22T02:58:11.495Z,17.05
2018-08-22T02:59:46.866Z,17.05
2018-08-22T03:01:23.413Z,17.14
2018-08-22T03:03:01.130Z,17.14
2018-08-22T03:04:37.266Z,17.09
2018-08-22T03:06:12.124Z,17.17
2018-08-22T03:07:47.787Z,17.15
2018-08-22T03:09:22.817Z,17.30
2018-08-22T03:10:59.834Z,17.27
2018-08-22T03:12:35.264Z,17.24
2018-08-22T03:14:10.539Z,17.23
2018-08-22T03:15:46.062Z,17.19
2018-08-22T03:17:21.394Z,17.19
2018-08-22T03:18:57.115Z,17.19
2018-08-22T03:20:32.684Z,17.15
2018-08-22T03:22:08.237Z,17.13
2018-08-22T03:23:43.561Z,17.24
2018-08-22T03:25:19.642Z,17.20
2018-08-22T03:26:56.328Z,17.18
2018-08-22T03:28:32.754Z,17.07
2018-08-22T03:30:08.192Z,17.04
2018-08-22T03:31:43.433Z,17.03
2018-08-22T03:33:18.835Z,16.97
2018-08-22T03:34:53.931Z,17.00
2018-08-22T03:36:28.990Z,17.01
2018-08-22T03:38:04.293Z,16.98
2018-08-22T03:39:39.718Z,16.93
2018-08-22T03:41:15.770Z,16.93
2018-08-22T03:42:50.896Z,16.90
2018-08-22T03:44:25.933Z,16.95
2018-08-22T03:46:01.670Z,16.91
2018-08-22T03:47:37.260Z,16.89
2018-08-22T03:49:14.914Z,16.84
2018-08-22T03:50:51.066Z,16.77
2018-08-22T03:52:30.696Z,16.76
2018-08-22T03:54:12.673Z,16.68
2018-08-22T03:55:55.655Z,16.61
2018-08-22T03:57:36.760Z,16.54
2018-08-22T03:59:18.042Z,16.50
2018-08-22T04:00:53.327Z,16.51
2018-08-22T04:02:28.605Z,16.46
2018-08-22T04:04:03.691Z,16.47
2018-08-22T04:05:38.663Z,16.48
2018-08-22T04:07:13.863Z,16.43
2018-08-22T04:08:49.124Z,16.47
2018-08-22T04:10:25.810Z,16.52
2018-08-22T04:12:01.884Z,16.45
2018-08-22T04:13:37.025Z,16.41
2018-08-22T04:15:14.760Z,16.40
2018-08-22T04:16:50.269Z,16.39
2018-08-22T04:18:25.252Z,16.35
2018-08-22T04:20:00.333Z,16.32
2018-08-22T04:21:35.574Z,16.31
2018-08-22T04:23:10.892Z,16.34
2018-08-22T04:24:47.121Z,16.31
2018-08-22T04:26:22.093Z,16.26
2018-08-22T04:27:57.781Z,16.23
2018-08-22T04:29:33.728Z,16.31
2018-08-22T04:31:09.137Z,16.30
2018-08-22T04:32:46.785Z,16.26
2018-08-22T04:34:23.282Z,16.26
2018-08-22T04:35:59.888Z,16.21
2018-08-22T04:37:35.505Z,16.15
2018-08-22T04:39:10.956Z,16.18
2018-08-22T04:40:46.613Z,16.15
2018-08-22T04:42:22.025Z,16.15
2018-08-22T04:43:58.467Z,16.13
2018-08-22T04:45:33.941Z,16.15
2018-08-22T04:47:09.552Z,16.15
2018-08-22T04:48:45.168Z,16.18
2018-08-22T04:50:20.370Z,16.20
2018-08-22T04:51:55.477Z,16.21
2018-08-22T04:53:33.462Z,16.21
2018-08-22T04:55:08.819Z,16.21
2018-08-22T04:56:44.211Z,16.20
2018-08-22T04:58:19.309Z,16.19
2018-08-22T04:59:54.702Z,16.22
2018-08-22T05:01:29.908Z,16.23
2018-08-22T05:03:05.314Z,16.23
2018-08-22T05:04:40.727Z,16.27
2018-08-22T05:06:15.980Z,16.29
2018-08-22T05:07:50.941Z,16.34
2018-08-22T05:09:26.079Z,16.39
2018-08-22T05:11:01.448Z,16.44
2018-08-22T05:12:36.541Z,16.55
2018-08-22T05:14:11.633Z,16.64
2018-08-22T05:15:47.048Z,16.73
2018-08-22T05:17:22.261Z,16.85
2018-08-22T05:18:58.128Z,16.94
2018-08-22T05:20:33.551Z,17.08
2018-08-22T05:22:08.765Z,17.16
2018-08-22T05:23:45.546Z,17.23
2018-08-22T05:25:20.515Z,17.32
2018-08-22T05:26:59.334Z,17.36
2018-08-22T05:28:36.622Z,17.46
2018-08-22T05:30:16.506Z,17.53
2018-08-22T05:31:52.093Z,17.58
2018-08-22T05:33:27.343Z,17.66
2018-08-22T05:35:03.389Z,17.74
2018-08-22T05:36:38.384Z,17.80
2018-08-22T05:38:13.627Z,17.82
2018-08-22T05:39:49.406Z,17.91
2018-08-22T05:41:25.929Z,17.96
2018-08-22T05:43:01.520Z,18.00
2018-08-22T05:44:36.748Z,18.04
2018-08-22T05:46:12.433Z,18.14
2018-08-22T05:47:47.907Z,18.27
2018-08-22T05:49:24.786Z,18.38
2018-08-22T05:50:59.970Z,18.52
2018-08-22T05:52:35.257Z,18.61
2018-08-22T05:54:10.379Z,18.66
2018-08-22T05:55:45.869Z,18.79
2018-08-22T05:57:20.981Z,18.88
2018-08-22T05:58:56.734Z,18.94
2018-08-22T06:00:32.937Z,19.08
2018-08-22T06:02:08.602Z,19.17
2018-08-22T06:03:45.681Z,19.25
2018-08-22T06:05:23.681Z,19.29
2018-08-22T06:06:58.908Z,19.35
2018-08-22T06:08:33.879Z,19.44
2018-08-22T06:10:10.265Z,19.48
2018-08-22T06:11:45.644Z,19.62
2018-08-22T06:13:27.707Z,19.68
2018-08-22T06:15:09.689Z,19.77
2018-08-22T06:16:49.882Z,19.83
2018-08-22T06:18:25.209Z,19.89
2018-08-22T06:20:02.735Z,20.00
2018-08-22T06:21:37.869Z,20.07
2018-08-22T06:23:13.195Z,20.22
2018-08-22T06:24:49.200Z,20.43
2018-08-22T06:26:24.401Z,20.56
2018-08-22T06:27:59.440Z,20.76
2018-08-22T06:29:35.444Z,21.00
2018-08-22T06:31:11.055Z,21.23
2018-08-22T06:32:47.882Z,21.41
2018-08-22T06:34:23.221Z,21.61
2018-08-22T06:35:59.519Z,21.85
2018-08-22T06:37:34.871Z,22.09
2018-08-22T06:39:11.581Z,22.33
2018-08-22T06:40:47.621Z,22.46
2018-08-22T06:42:24.364Z,22.70
2018-08-22T06:44:00.008Z,22.82
2018-08-22T06:45:36.597Z,23.03
2018-08-22T06:47:12.365Z,23.12
2018-08-22T06:48:47.756Z,23.29
2018-08-22T06:50:23.109Z,23.43
2018-08-22T06:51:58.326Z,23.51
2018-08-22T06:53:33.575Z,23.66
2018-08-22T06:55:08.894Z,23.62
2018-08-22T06:56:44.061Z,23.87
2018-08-22T06:58:19.353Z,23.89
2018-08-22T06:59:55.651Z,24.06
2018-08-22T07:01:30.780Z,24.15
2018-08-22T07:03:07.205Z,24.19
2018-08-22T07:04:42.590Z,24.08
2018-08-22T07:06:17.909Z,24.22
2018-08-22T07:07:53.431Z,24.44
2018-08-22T07:09:28.700Z,24.45
2018-08-22T07:11:04.020Z,24.53
2018-08-22T07:12:39.191Z,24.55
2018-08-22T07:15:23.455Z,24.55
2018-08-22T07:16:58.499Z,24.83
2018-08-22T07:18:35.134Z,24.76
2018-08-22T07:20:10.530Z,24.83
2018-08-22T07:21:45.810Z,25.03
2018-08-22T07:23:21.172Z,25.17
2018-08-22T07:24:56.718Z,25.29
2018-08-22T07:26:35.045Z,25.48
2018-08-22T07:28:12.146Z,25.48
2018-08-22T07:29:48.889Z,25.59
2018-08-22T07:31:24.581Z,25.54
2018-08-22T07:33:03.317Z,25.53
2018-08-22T07:34:39.148Z,25.63
2018-08-22T07:36:15.728Z,25.80
2018-08-22T07:37:51.657Z,25.93
2018-08-22T07:39:29.247Z,26.00
2018-08-22T07:41:06.728Z,26.02
2018-08-22T07:42:42.009Z,26.13
2018-08-22T07:44:17.162Z,26.09
2018-08-22T07:45:52.428Z,26.18
2018-08-22T07:47:28.640Z,25.92
2018-08-22T07:49:06.253Z,26.13
2018-08-22T07:50:43.914Z,26.32
2018-08-22T07:52:21.510Z,26.52
2018-08-22T07:53:59.984Z,26.64
2018-08-22T07:55:41.566Z,26.60
2018-08-22T07:57:24.861Z,26.69
2018-08-22T07:59:17.397Z,26.02
2018-08-22T08:00:54.617Z,26.29
2018-08-22T08:02:31.999Z,26.12
2018-08-22T08:04:08.146Z,25.77
2018-08-22T08:05:43.907Z,26.10
2018-08-22T08:07:20.957Z,26.32
2018-08-22T08:08:57.110Z,26.54
2018-08-22T08:10:32.842Z,26.44
2018-08-22T08:12:08.486Z,26.42
2018-08-22T08:13:43.580Z,26.45
2018-08-22T08:15:18.729Z,26.67
2018-08-22T08:16:54.041Z,26.75
2018-08-22T08:18:31.356Z,27.02
2018-08-22T08:20:08.268Z,27.09
2018-08-22T08:21:43.373Z,26.84
2018-08-22T08:23:20.552Z,26.78
2018-08-22T08:24:55.605Z,26.82
2018-08-22T08:26:31.615Z,26.98
2018-08-22T08:28:09.988Z,26.70
2018-08-22T08:29:45.969Z,26.23
2018-08-22T08:31:21.771Z,26.62
2018-08-22T08:32:57.986Z,26.63
2018-08-22T08:34:33.738Z,26.84
2018-08-22T08:36:15.818Z,26.54
2018-08-22T08:37:52.347Z,26.41
2018-08-22T08:39:27.722Z,26.45
2018-08-22T08:41:03.441Z,26.57
2018-08-22T08:42:41.660Z,26.62
2018-08-22T08:44:17.278Z,26.95
2018-08-22T08:45:54.423Z,26.98
2018-08-22T08:47:34.395Z,27.13
2018-08-22T08:49:10.448Z,27.14
2018-08-22T08:50:47.566Z,26.98
2018-08-22T08:52:23.357Z,26.95
2018-08-22T08:54:00.005Z,26.96
2018-08-22T08:55:35.983Z,26.66
2018-08-22T08:57:13.113Z,27.20
2018-08-22T08:58:49.243Z,27.23
2018-08-22T09:00:26.105Z,27.43
2018-08-22T09:02:01.229Z,27.35
2018-08-22T09:03:36.374Z,27.60
2018-08-22T09:05:13.240Z,27.79
2018-08-22T09:06:49.681Z,27.82
2018-08-22T09:08:26.162Z,28.00
2018-08-22T09:10:01.336Z,28.24
2018-08-22T09:11:37.590Z,28.31
2018-08-22T09:13:13.450Z,28.36
2018-08-22T09:14:49.528Z,28.35
2018-08-22T09:16:25.044Z,28.33
2018-08-22T09:18:01.082Z,28.20
2018-08-22T09:19:37.537Z,28.17
2018-08-22T09:21:13.064Z,28.58
2018-08-22T09:22:48.188Z,28.47
2018-08-22T09:24:24.897Z,28.86
2018-08-22T09:26:01.543Z,29.13
2018-08-22T09:27:37.698Z,28.77
2018-08-22T09:29:13.629Z,28.47
2018-08-22T09:30:49.385Z,28.51
2018-08-22T09:32:26.766Z,28.86
2018-08-22T09:34:02.191Z,28.91
2018-08-22T09:35:37.538Z,29.02
2018-08-22T09:37:12.879Z,29.04
2018-08-22T09:38:54.548Z,29.29
2018-08-22T09:40:30.388Z,29.51
2018-08-22T09:42:05.687Z,29.25
2018-08-22T09:43:42.537Z,29.19
2018-08-22T09:45:20.474Z,29.12
2018-08-22T09:46:58.559Z,29.15
2018-08-22T09:48:36.289Z,29.68
2018-08-22T09:50:12.440Z,29.67
2018-08-22T09:51:51.515Z,29.48
2018-08-22T09:53:27.321Z,29.67
2018-08-22T09:55:04.640Z,29.50
2018-08-22T09:56:41.419Z,29.09
2018-08-22T09:58:20.518Z,29.41
2018-08-22T10:00:04.198Z,29.52
2018-08-22T10:01:44.867Z,30.00
2018-08-22T10:03:20.159Z,30.19
2018-08-22T10:04:56.175Z,30.37
2018-08-22T10:06:45.401Z,30.61
2018-08-22T10:08:20.644Z,30.52
2018-08-22T10:09:56.390Z,30.57
2018-08-22T10:11:31.684Z,30.49
2018-08-22T10:13:08.990Z,30.58
2018-08-22T10:14:44.573Z,30.58
2018-08-22T10:16:20.168Z,30.46
2018-08-22T10:17:56.022Z,30.61
2018-08-22T10:19:32.868Z,30.86
2018-08-22T10:21:08.912Z,30.89
2018-08-22T10:22:44.333Z,30.80
2018-08-22T10:24:19.305Z,30.89
2018-08-22T10:26:01.605Z,31.17
2018-08-22T10:27:38.687Z,30.86
2018-08-22T10:29:15.465Z,31.23
2018-08-22T10:30:51.515Z,31.26
2018-08-22T10:32:27.038Z,31.13
2018-08-22T10:34:03.047Z,30.97
2018-08-22T10:35:39.278Z,31.44
2018-08-22T10:37:14.757Z,31.02
2018-08-22T10:38:51.391Z,31.09
2018-08-22T10:40:26.557Z,31.15
2018-08-22T10:42:03.690Z,30.93
2018-08-22T10:43:38.965Z,30.39
2018-08-22T10:45:16.824Z,31.21
2018-08-22T10:46:52.880Z,31.62
2018-08-22T10:48:30.553Z,31.53
2018-08-22T10:50:06.950Z,31.76
2018-08-22T10:51:44.033Z,31.42
2018-08-22T10:53:22.446Z,31.42
2018-08-22T10:54:57.904Z,31.55
2018-08-22T10:56:37.173Z,32.18
2018-08-22T10:58:15.790Z,31.78
2018-08-22T10:59:53.400Z,32.34
2018-08-22T11:01:28.851Z,32.47
2018-08-22T11:03:05.551Z,32.19
2018-08-22T11:04:41.133Z,32.51
2018-08-22T11:06:20.586Z,32.61
2018-08-22T11:07:58.020Z,32.64
2018-08-22T11:09:36.450Z,31.90
2018-08-22T11:11:13.011Z,32.39
2018-08-22T11:13:59.017Z,32.10
2018-08-22T11:15:38.713Z,31.86
2018-08-22T11:17:17.465Z,32.35
2018-08-22T11:18:59.279Z,32.35
2018-08-22T11:20:42.665Z,32.03
2018-08-22T11:22:28.503Z,32.15
2018-08-22T11:24:14.705Z,32.46
2018-08-22T11:26:00.932Z,32.59
2018-08-22T11:27:47.169Z,32.55
2018-08-22T11:29:33.768Z,32.39
2018-08-22T11:31:21.388Z,32.87
2018-08-22T11:33:07.016Z,33.08
2018-08-22T11:34:46.997Z,32.96
2018-08-22T11:36:20.636Z,33.08
2018-08-22T11:37:57.571Z,32.68
2018-08-22T11:39:34.432Z,33.00
2018-08-22T11:41:11.791Z,32.70
2018-08-22T11:42:47.862Z,32.03
2018-08-22T11:44:24.203Z,32.09
2018-08-22T11:46:00.590Z,31.10
2018-08-22T11:47:38.124Z,31.02
2018-08-22T11:49:15.122Z,31.02
2018-08-22T11:50:51.177Z,30.93
2018-08-22T11:52:29.418Z,30.63
2018-08-22T11:54:08.714Z,31.04
2018-08-22T11:55:46.442Z,31.06
2018-08-22T11:57:23.127Z,30.68
2018-08-22T11:59:00.141Z,30.57
2018-08-22T12:00:40.960Z,30.33
2018-08-22T12:02:21.901Z,30.38
2018-08-22T12:03:59.673Z,30.71
2018-08-22T12:05:42.863Z,30.20
2018-08-22T12:07:23.408Z,30.44
2018-08-22T12:09:01.368Z,30.77
2018-08-22T12:10:43.599Z,30.54
2018-08-22T12:12:20.856Z,30.37
2018-08-22T12:14:02.611Z,30.58
2018-08-22T12:15:45.825Z,30.69
2018-08-22T12:17:31.781Z,30.88
2018-08-22T12:19:14.556Z,31.01
2018-08-22T12:20:52.780Z,30.89
2018-08-22T12:22:31.036Z,30.77
2018-08-22T12:24:11.331Z,30.57
2018-08-22T12:25:47.973Z,30.82
2018-08-22T12:27:25.210Z,31.14
2018-08-22T12:29:05.534Z,30.90
2018-08-22T12:30:44.521Z,31.39
2018-08-22T12:32:23.414Z,31.71
2018-08-22T12:34:03.550Z,31.48
2018-08-22T12:35:39.989Z,31.71
2018-08-22T12:37:22.867Z,31.63
2018-08-22T12:39:01.757Z,31.80
2018-08-22T12:40:37.941Z,31.91
2018-08-22T12:42:15.390Z,31.78
2018-08-22T12:43:55.479Z,32.14
2018-08-22T12:45:34.247Z,32.23
2018-08-22T12:47:14.781Z,31.63
2018-08-22T12:48:50.373Z,31.21
2018-08-22T12:50:28.928Z,31.26
2018-08-22T12:52:07.738Z,31.64
2018-08-22T12:53:45.651Z,31.69
2018-08-22T12:55:22.500Z,31.98
2018-08-22T12:56:58.349Z,32.40
2018-08-22T12:58:33.523Z,32.38
2018-08-22T13:00:08.870Z,32.71
2018-08-22T13:01:45.255Z,32.44
2018-08-22T13:03:23.287Z,32.71
2018-08-22T13:05:04.599Z,32.09
2018-08-22T13:06:44.290Z,32.19
2018-08-22T13:08:20.916Z,31.83
2018-08-22T13:10:00.295Z,32.20
2018-08-22T13:11:37.000Z,31.98
2018-08-22T13:13:15.914Z,31.76
2018-08-22T13:14:52.750Z,31.85
2018-08-22T13:16:42.885Z,31.97
2018-08-22T13:18:19.425Z,31.86
2018-08-22T13:19:55.870Z,32.02
2018-08-22T13:21:32.110Z,31.76
2018-08-22T13:23:15.652Z,31.23
2018-08-22T13:24:52.599Z,30.79
2018-08-22T13:26:31.604Z,30.84
2018-08-22T13:28:09.278Z,30.70
2018-08-22T13:29:52.210Z,30.76
2018-08-22T13:31:29.917Z,30.89
2018-08-22T13:33:05.683Z,30.63
2018-08-22T13:34:42.167Z,30.47
2018-08-22T13:36:20.415Z,30.02
2018-08-22T13:37:57.936Z,29.87
2018-08-22T13:39:35.568Z,30.41
2018-08-22T13:41:11.691Z,30.18
2018-08-22T13:42:48.418Z,30.47
2018-08-22T13:44:25.476Z,30.58
2018-08-22T13:46:03.763Z,30.49
2018-08-22T13:47:40.895Z,30.55
2018-08-22T13:49:17.245Z,30.69
2018-08-22T13:50:53.024Z,30.71
2018-08-22T13:52:29.833Z,30.89
2018-08-22T13:54:07.293Z,31.14
2018-08-22T13:55:43.408Z,31.20
2018-08-22T13:57:21.822Z,31.33
2018-08-22T13:59:00.833Z,31.31
2018-08-22T14:00:37.297Z,31.44
2018-08-22T14:02:13.849Z,31.27
2018-08-22T14:03:55.491Z,31.08
2018-08-22T14:05:33.554Z,30.71
2018-08-22T14:07:10.779Z,30.74
2018-08-22T14:08:47.516Z,30.51
2018-08-22T14:10:26.646Z,30.39
2018-08-22T14:12:05.194Z,30.52
2018-08-22T14:13:42.833Z,30.83
2018-08-22T14:15:21.565Z,30.89
2018-08-22T14:16:59.700Z,30.82
2018-08-22T14:18:35.864Z,30.80
2018-08-22T14:20:13.163Z,30.84
2018-08-22T14:21:53.289Z,30.74
2018-08-22T14:23:31.979Z,30.79
2018-08-22T14:25:14.162Z,30.83
2018-08-22T14:26:53.112Z,31.19
2018-08-22T14:29:40.335Z,30.73
2018-08-22T14:31:19.771Z,30.88
2018-08-22T14:32:56.661Z,30.94
2018-08-22T14:34:32.776Z,31.05
2018-08-22T14:36:10.471Z,31.26
2018-08-22T14:37:46.216Z,31.16
2018-08-22T14:39:22.004Z,31.20
2018-08-22T14:40:57.386Z,31.26
2018-08-22T14:42:35.929Z,31.03
2018-08-22T14:44:12.517Z,30.76
2018-08-22T14:45:47.939Z,30.37
2018-08-22T14:47:28.396Z,29.92
2018-08-22T14:49:06.592Z,29.99
2018-08-22T14:50:43.101Z,29.71
2018-08-22T14:52:18.447Z,29.99
2018-08-22T14:53:55.475Z,30.29
2018-08-22T14:55:33.110Z,30.44
2018-08-22T14:57:10.965Z,30.18
2018-08-22T14:58:49.489Z,30.14
2018-08-22T15:00:27.476Z,30.16
2018-08-22T15:02:04.412Z,30.06
2018-08-22T15:03:42.615Z,30.31
2018-08-22T15:05:23.207Z,30.44
2018-08-22T15:06:59.666Z,30.75
2018-08-22T15:08:35.603Z,30.79
2018-08-22T15:10:15.905Z,30.74
2018-08-22T15:11:54.705Z,30.68
2018-08-22T15:13:32.774Z,30.34
2018-08-22T15:15:09.634Z,30.18
2018-08-22T15:16:46.805Z,29.98
2018-08-22T15:18:23.475Z,30.25
2018-08-22T15:19:58.749Z,30.52
2018-08-22T15:21:38.443Z,30.54
2018-08-22T15:23:15.404Z,30.65
2018-08-22T15:24:55.142Z,30.40
2018-08-22T15:28:23.694Z,29.81
2018-08-22T15:30:16.781Z,29.76
2018-08-22T15:32:04.656Z,29.83
2018-08-22T15:33:40.539Z,29.94
2018-08-22T15:35:16.143Z,30.01
2018-08-22T15:36:56.372Z,29.67
2018-08-22T15:38:35.260Z,29.82
2018-08-22T15:40:11.926Z,29.67
2018-08-22T15:41:48.896Z,29.41
2018-08-22T15:43:25.437Z,29.60
2018-08-22T15:45:00.488Z,29.25
2018-08-22T15:46:36.080Z,29.22
2018-08-22T15:48:16.527Z,29.19
2018-08-22T15:49:57.483Z,29.10
2018-08-22T15:51:38.954Z,28.60
2018-08-22T15:53:14.379Z,28.66
2018-08-22T15:55:05.342Z,28.59
2018-08-22T15:56:42.976Z,28.57
2018-08-22T15:58:18.865Z,28.60
2018-08-22T15:59:58.695Z,28.54
2018-08-22T16:01:36.581Z,28.45
2018-08-22T16:03:15.231Z,28.27
2018-08-22T16:04:59.155Z,28.17
2018-08-22T16:06:37.262Z,27.98
2018-08-22T16:08:21.598Z,27.91
2018-08-22T16:09:57.135Z,27.87
2018-08-22T16:11:42.380Z,27.76
2018-08-22T16:13:22.658Z,27.92
2018-08-22T16:15:00.174Z,27.73
2018-08-22T16:16:35.946Z,27.72
2018-08-22T16:18:11.603Z,27.74
2018-08-22T16:19:46.748Z,27.62
2018-08-22T16:21:22.716Z,27.64
2018-08-22T16:22:58.504Z,27.54
2018-08-22T16:24:36.861Z,27.46
2018-08-22T16:26:12.142Z,27.35
2018-08-22T16:27:52.547Z,27.31
2018-08-22T16:29:30.248Z,27.35
2018-08-22T16:31:07.588Z,27.32
2018-08-22T16:32:47.317Z,27.31
2018-08-22T16:34:24.529Z,27.21
2018-08-22T16:36:00.739Z,27.32
2018-08-22T16:37:39.459Z,27.34
2018-08-22T16:39:20.521Z,27.32
2018-08-22T16:42:44.000Z,27.20
2018-08-22T16:44:20.103Z,27.01
2018-08-22T16:45:56.552Z,27.06
2018-08-22T16:47:37.472Z,27.01
2018-08-22T16:49:17.777Z,27.02
2018-08-22T16:50:55.257Z,26.95
2018-08-22T16:52:38.817Z,26.93
2018-08-22T16:54:16.323Z,26.76
2018-08-22T16:56:00.723Z,26.81
2018-08-22T16:57:36.100Z,26.86
2018-08-22T17:00:56.948Z,26.78
2018-08-22T17:02:34.204Z,26.70
2018-08-22T17:04:11.922Z,26.65
2018-08-22T17:05:48.896Z,26.48
2018-08-22T17:07:26.235Z,26.51
2018-08-22T17:09:04.416Z,26.45
2018-08-22T17:10:52.030Z,26.49
2018-08-22T17:12:40.277Z,26.45
2018-08-22T17:14:16.202Z,26.33
2018-08-22T17:15:52.996Z,26.30
2018-08-22T17:18:43.952Z,26.28
2018-08-22T17:20:19.645Z,26.20
2018-08-22T17:22:00.637Z,26.16
2018-08-22T17:23:38.008Z,26.15
2018-08-22T17:25:20.056Z,26.20
2018-08-22T17:27:00.348Z,26.13
2018-08-22T17:28:39.317Z,26.12
2018-08-22T17:30:20.526Z,26.20
2018-08-22T17:32:06.490Z,26.18
2018-08-22T17:33:47.813Z,26.11
2018-08-22T17:35:27.320Z,26.09
2018-08-22T17:37:08.551Z,26.03
2018-08-22T17:38:47.618Z,25.96
2018-08-22T17:40:23.798Z,25.94
2018-08-22T17:42:01.580Z,25.88
2018-08-22T17:43:51.744Z,25.85
2018-08-22T17:45:34.821Z,25.80
2018-08-22T17:47:14.624Z,25.75
2018-08-22T17:48:54.759Z,25.68
2018-08-22T17:50:32.351Z,25.55
2018-08-22T17:52:12.143Z,25.46
2018-08-22T17:53:47.231Z,25.40
2018-08-22T17:55:22.830Z,25.38
2018-08-22T17:57:13.362Z,25.32
2018-08-22T17:58:53.380Z,25.21
2018-08-22T18:00:38.645Z,25.09
2018-08-22T18:02:15.125Z,25.02
2018-08-22T18:03:53.300Z,24.95
2018-08-22T18:05:38.449Z,24.90
2018-08-22T18:07:20.096Z,24.80
2018-08-22T18:08:57.275Z,24.68
2018-08-22T18:10:36.286Z,24.63
2018-08-22T18:12:19.124Z,24.56
2018-08-22T18:13:58.586Z,24.50
2018-08-22T18:15:42.696Z,24.42
2018-08-22T18:19:09.803Z,24.21
2018-08-22T18:20:50.079Z,24.10
2018-08-22T18:22:31.880Z,24.03
2018-08-22T18:24:14.045Z,24.03
2018-08-22T18:25:54.636Z,23.97
2018-08-22T18:27:33.224Z,23.89
2018-08-22T18:29:11.372Z,23.80
2018-08-22T18:30:52.105Z,23.73
2018-08-22T18:32:43.385Z,23.65
2018-08-22T18:36:42.318Z,23.49
2018-08-22T18:38:19.889Z,23.46
2018-08-22T18:40:27.724Z,23.37
2018-08-22T18:42:05.705Z,23.20
2018-08-22T18:43:44.236Z,23.10
2018-08-22T18:45:28.989Z,22.97
2018-08-22T18:47:06.376Z,22.85
2018-08-22T18:48:44.740Z,22.72
2018-08-22T18:50:23.485Z,22.66
2018-08-22T18:52:15.020Z,22.51
2018-08-22T18:54:04.713Z,22.34
2018-08-22T18:55:43.713Z,22.19
2018-08-22T18:57:34.728Z,22.06
2018-08-22T18:59:29.569Z,21.97
2018-08-22T19:01:13.491Z,21.88
2018-08-22T19:03:00.767Z,21.87
2018-08-22T19:04:49.185Z,21.76
2018-08-22T19:08:24.842Z,21.65
2018-08-22T19:10:05.640Z,21.58
2018-08-22T19:11:44.444Z,21.51
2018-08-22T19:13:22.125Z,21.48
2018-08-22T19:15:09.226Z,21.52
2018-08-22T19:16:48.614Z,21.46
2018-08-22T19:18:31.018Z,21.46
2018-08-22T19:20:14.329Z,21.39
2018-08-22T19:21:56.593Z,21.39
2018-08-22T19:23:35.909Z,21.33
2018-08-22T19:27:12.371Z,21.12
2018-08-22T19:29:00.776Z,20.95
2018-08-22T19:30:42.754Z,20.85
2018-08-22T19:32:36.770Z,20.74
2018-08-22T19:34:18.218Z,20.63
2018-08-22T19:35:56.760Z,20.57
2018-08-22T19:37:36.989Z,20.50
2018-08-22T19:39:16.262Z,20.44
2018-08-22T19:40:52.579Z,20.48
2018-08-22T19:42:30.928Z,20.45
2018-08-22T19:44:14.197Z,20.41
2018-08-22T19:45:51.262Z,20.35
2018-08-22T19:47:48.947Z,20.26
2018-08-22T19:49:43.769Z,20.26
2018-08-22T19:53:18.227Z,20.29
2018-08-22T19:55:01.215Z,20.19
2018-08-22T19:56:39.272Z,20.14
2018-08-22T19:58:25.166Z,20.22
2018-08-22T20:00:10.622Z,20.07
2018-08-22T20:01:55.493Z,20.08
2018-08-22T20:03:36.779Z,19.93
2018-08-22T20:05:20.461Z,19.85
2018-08-22T20:07:01.954Z,19.79
2018-08-22T20:08:45.866Z,19.82
2018-08-22T20:12:11.504Z,19.92
2018-08-22T20:14:00.446Z,20.06
2018-08-22T20:15:52.505Z,20.00
2018-08-22T20:17:35.668Z,19.88
2018-08-22T20:21:15.278Z,19.72
2018-08-22T20:23:01.678Z,19.61
2018-08-22T20:24:45.017Z,19.59
2018-08-22T20:26:32.778Z,19.53
2018-08-22T20:28:16.688Z,19.68
2018-08-22T20:30:18.070Z,19.70
2018-08-22T20:32:00.762Z,19.70
2018-08-22T20:33:44.744Z,19.60
2018-08-22T20:35:28.281Z,19.54
2018-08-22T20:37:07.463Z,19.47
2018-08-22T20:38:51.461Z,19.37
2018-08-22T20:40:34.082Z,19.28
2018-08-22T20:42:18.819Z,19.23
2018-08-22T20:43:57.306Z,19.20
2018-08-22T20:45:38.098Z,19.32
2018-08-22T20:47:18.887Z,19.21
2018-08-22T20:48:59.381Z,19.20
2018-08-22T20:50:43.747Z,19.08
2018-08-22T20:52:23.193Z,19.02
2018-08-22T20:54:08.473Z,19.05
2018-08-22T20:55:46.079Z,19.04
2018-08-22T20:57:28.983Z,19.09
2018-08-22T20:59:10.140Z,19.21
2018-08-22T21:00:53.768Z,19.18
2018-08-22T21:02:34.693Z,19.27
2018-08-22T21:04:13.555Z,19.28
2018-08-22T21:05:57.744Z,19.22
2018-08-22T21:07:38.515Z,19.17
2018-08-22T21:09:16.456Z,19.12
2018-08-22T21:10:52.160Z,19.15
2018-08-22T21:12:29.160Z,19.16
2018-08-22T21:14:14.327Z,19.27
2018-08-22T21:15:53.398Z,19.19
2018-08-22T21:17:46.644Z,19.13
2018-08-22T21:19:25.252Z,19.24
2018-08-22T21:21:08.121Z,19.18
2018-08-22T21:22:46.021Z,19.16
2018-08-22T21:24:26.475Z,19.11
2018-08-22T21:26:08.194Z,19.02